sensor_id;sensor_type;location;lat;lon;timestamp;P1;durP1;ratioP1;P2;durP2;ratioP2
9924;SDS011;5001;51.674;7.868;2024-03-23T00:54:04;17.67;;;15.90;;
9924;SDS011;5001;51.674;7.868;2024-03-23T00:56:30;18.23;;;16.50;;
9924;SDS011;5001;51.674;7.868;2024-03-23T00:58:56;17.87;;;16.07;;
9924;SDS011;5001;51.674;7.868;2024-03-23T01:01:22;17.03;;;15.73;;
9924;SDS011;5001;51.674;7.868;2024-03-23T01:03:48;17.57;;;15.80;;
9924;SDS011;5001;51.674;7.868;2024-03-23T01:06:14;18.13;;;16.30;;
9924;SDS011;5001;51.674;7.868;2024-03-23T01:08:40;17.17;;;15.67;;
9924;SDS011;5001;51.674;7.868;2024-03-23T01:11:05;17.43;;;15.67;;
9924;SDS011;5001;51.674;7.868;2024-03-23T01:13:31;17.03;;;15.63;;
9924;SDS011;5001;51.674;7.868;2024-03-23T01:15:57;16.57;;;15.20;;
9924;SDS011;5001;51.674;7.868;2024-03-23T01:18:23;17.40;;;15.90;;
9924;SDS011;5001;51.674;7.868;2024-03-23T01:20:51;17.40;;;16.00;;
9924;SDS011;5001;51.674;7.868;2024-03-23T01:23:18;16.97;;;15.60;;
9924;SDS011;5001;51.674;7.868;2024-03-23T01:25:44;16.47;;;15.37;;
9924;SDS011;5001;51.674;7.868;2024-03-23T01:28:17;16.47;;;15.27;;
9924;SDS011;5001;51.674;7.868;2024-03-23T01:30:44;16.93;;;15.40;;
9924;SDS011;5001;51.674;7.868;2024-03-23T01:33:10;16.87;;;15.23;;
9924;SDS011;5001;51.674;7.868;2024-03-23T01:35:36;17.13;;;15.70;;
9924;SDS011;5001;51.674;7.868;2024-03-23T01:38:02;16.97;;;15.33;;
9924;SDS011;5001;51.674;7.868;2024-03-23T01:40:28;16.03;;;14.83;;
9924;SDS011;5001;51.674;7.868;2024-03-23T01:43:04;16.20;;;15.03;;
9924;SDS011;5001;51.674;7.868;2024-03-23T01:45:33;16.57;;;14.93;;
9924;SDS011;5001;51.674;7.868;2024-03-23T01:47:59;17.23;;;15.50;;
9924;SDS011;5001;51.674;7.868;2024-03-23T01:50:26;16.70;;;15.30;;
9924;SDS011;5001;51.674;7.868;2024-03-23T01:52:53;16.90;;;15.40;;
9924;SDS011;5001;51.674;7.868;2024-03-23T01:55:19;16.67;;;15.17;;
9924;SDS011;5001;51.674;7.868;2024-03-23T01:57:45;16.53;;;15.00;;
9924;SDS011;5001;51.674;7.868;2024-03-23T02:00:12;15.63;;;14.53;;
9924;SDS011;5001;51.674;7.868;2024-03-23T02:02:45;17.37;;;15.60;;
9924;SDS011;5001;51.674;7.868;2024-03-23T02:05:11;16.60;;;15.20;;
9924;SDS011;5001;51.674;7.868;2024-03-23T02:07:38;16.33;;;15.10;;
9924;SDS011;5001;51.674;7.868;2024-03-23T02:10:06;16.40;;;15.00;;
9924;SDS011;5001;51.674;7.868;2024-03-23T02:12:33;16.70;;;15.47;;
9924;SDS011;5001;51.674;7.868;2024-03-23T02:14:59;17.93;;;16.23;;
9924;SDS011;5001;51.674;7.868;2024-03-23T02:17:25;17.23;;;15.83;;
9924;SDS011;5001;51.674;7.868;2024-03-23T02:19:51;17.00;;;15.80;;
9924;SDS011;5001;51.674;7.868;2024-03-23T02:22:17;16.83;;;15.83;;
9924;SDS011;5001;51.674;7.868;2024-03-23T02:24:43;17.37;;;15.70;;
9924;SDS011;5001;51.674;7.868;2024-03-23T02:27:10;16.97;;;15.43;;
9924;SDS011;5001;51.674;7.868;2024-03-23T02:29:36;15.90;;;14.87;;
9924;SDS011;5001;51.674;7.868;2024-03-23T02:32:02;16.47;;;15.23;;
9924;SDS011;5001;51.674;7.868;2024-03-23T02:34:28;16.70;;;15.50;;
9924;SDS011;5001;51.674;7.868;2024-03-23T02:36:54;17.07;;;15.70;;
9924;SDS011;5001;51.674;7.868;2024-03-23T02:39:20;16.50;;;15.43;;
9924;SDS011;5001;51.674;7.868;2024-03-23T02:41:46;18.07;;;15.60;;
9924;SDS011;5001;51.674;7.868;2024-03-23T02:44:13;17.17;;;15.60;;
9924;SDS011;5001;51.674;7.868;2024-03-23T02:46:39;17.67;;;15.90;;
9924;SDS011;5001;51.674;7.868;2024-03-23T02:49:05;17.47;;;15.83;;
9924;SDS011;5001;51.674;7.868;2024-03-23T02:51:32;17.00;;;15.50;;
9924;SDS011;5001;51.674;7.868;2024-03-23T02:53:58;17.20;;;15.73;;
9924;SDS011;5001;51.674;7.868;2024-03-23T02:56:23;16.63;;;15.60;;
9924;SDS011;5001;51.674;7.868;2024-03-23T02:58:49;19.77;;;15.80;;
9924;SDS011;5001;51.674;7.868;2024-03-23T03:05:15;16.43;;;15.43;;
9924;SDS011;5001;51.674;7.868;2024-03-23T03:07:41;17.17;;;15.77;;
9924;SDS011;5001;51.674;7.868;2024-03-23T03:10:07;17.50;;;15.73;;
9924;SDS011;5001;51.674;7.868;2024-03-23T03:12:36;16.97;;;15.77;;
9924;SDS011;5001;51.674;7.868;2024-03-23T03:15:03;17.17;;;15.77;;
9924;SDS011;5001;51.674;7.868;2024-03-23T03:17:30;17.43;;;15.40;;
9924;SDS011;5001;51.674;7.868;2024-03-23T03:19:56;17.67;;;16.10;;
9924;SDS011;5001;51.674;7.868;2024-03-23T03:22:22;16.57;;;15.47;;
9924;SDS011;5001;51.674;7.868;2024-03-23T03:24:49;17.27;;;15.80;;
9924;SDS011;5001;51.674;7.868;2024-03-23T03:27:15;20.67;;;16.20;;
9924;SDS011;5001;51.674;7.868;2024-03-23T03:29:41;17.17;;;15.60;;
9924;SDS011;5001;51.674;7.868;2024-03-23T03:32:07;16.63;;;15.30;;
9924;SDS011;5001;51.674;7.868;2024-03-23T03:34:34;17.23;;;15.80;;
9924;SDS011;5001;51.674;7.868;2024-03-23T03:37:00;16.47;;;15.03;;
9924;SDS011;5001;51.674;7.868;2024-03-23T03:39:26;16.40;;;15.03;;
9924;SDS011;5001;51.674;7.868;2024-03-23T03:41:52;16.90;;;15.67;;
9924;SDS011;5001;51.674;7.868;2024-03-23T03:44:18;17.03;;;15.50;;
9924;SDS011;5001;51.674;7.868;2024-03-23T03:46:44;17.10;;;15.80;;
9924;SDS011;5001;51.674;7.868;2024-03-23T03:49:10;16.40;;;15.40;;
9924;SDS011;5001;51.674;7.868;2024-03-23T03:51:36;17.10;;;15.80;;
9924;SDS011;5001;51.674;7.868;2024-03-23T03:54:02;17.67;;;16.13;;
9924;SDS011;5001;51.674;7.868;2024-03-23T03:56:28;17.30;;;15.50;;
9924;SDS011;5001;51.674;7.868;2024-03-23T03:58:54;17.00;;;15.90;;
9924;SDS011;5001;51.674;7.868;2024-03-23T04:01:20;17.97;;;16.20;;
9924;SDS011;5001;51.674;7.868;2024-03-23T04:03:46;17.53;;;16.10;;
9924;SDS011;5001;51.674;7.868;2024-03-23T04:06:18;17.80;;;16.40;;
9924;SDS011;5001;51.674;7.868;2024-03-23T04:08:44;17.33;;;15.90;;
9924;SDS011;5001;51.674;7.868;2024-03-23T04:11:10;16.73;;;15.60;;
9924;SDS011;5001;51.674;7.868;2024-03-23T04:13:36;17.57;;;16.07;;
9924;SDS011;5001;51.674;7.868;2024-03-23T04:16:02;20.43;;;16.10;;
9924;SDS011;5001;51.674;7.868;2024-03-23T04:18:29;17.03;;;15.77;;
9924;SDS011;5001;51.674;7.868;2024-03-23T04:20:55;16.50;;;15.30;;
9924;SDS011;5001;51.674;7.868;2024-03-23T04:23:21;17.73;;;16.30;;
9924;SDS011;5001;51.674;7.868;2024-03-23T04:25:47;17.37;;;15.97;;
9924;SDS011;5001;51.674;7.868;2024-03-23T04:28:13;17.07;;;15.97;;
9924;SDS011;5001;51.674;7.868;2024-03-23T04:30:39;17.03;;;15.93;;
9924;SDS011;5001;51.674;7.868;2024-03-23T04:33:05;17.60;;;16.10;;
9924;SDS011;5001;51.674;7.868;2024-03-23T04:35:31;17.33;;;16.23;;
9924;SDS011;5001;51.674;7.868;2024-03-23T04:37:57;17.27;;;16.17;;
9924;SDS011;5001;51.674;7.868;2024-03-23T04:40:24;17.70;;;16.40;;
9924;SDS011;5001;51.674;7.868;2024-03-23T04:42:51;29.20;;;24.63;;
9924;SDS011;5001;51.674;7.868;2024-03-23T04:45:17;31.60;;;26.30;;
9924;SDS011;5001;51.674;7.868;2024-03-23T04:47:42;21.20;;;19.10;;
9924;SDS011;5001;51.674;7.868;2024-03-23T04:50:09;23.87;;;20.80;;
9924;SDS011;5001;51.674;7.868;2024-03-23T04:52:38;21.00;;;19.10;;
9924;SDS011;5001;51.674;7.868;2024-03-23T04:55:04;19.70;;;17.97;;
9924;SDS011;5001;51.674;7.868;2024-03-23T04:57:30;18.70;;;17.17;;
9924;SDS011;5001;51.674;7.868;2024-03-23T04:59:56;18.73;;;17.37;;
9924;SDS011;5001;51.674;7.868;2024-03-23T05:02:23;19.00;;;17.23;;
9924;SDS011;5001;51.674;7.868;2024-03-23T05:04:51;19.13;;;17.63;;
9924;SDS011;5001;51.674;7.868;2024-03-23T05:07:17;17.87;;;16.43;;
9924;SDS011;5001;51.674;7.868;2024-03-23T05:09:43;18.30;;;16.60;;
9924;SDS011;5001;51.674;7.868;2024-03-23T05:12:09;18.57;;;16.77;;
9924;SDS011;5001;51.674;7.868;2024-03-23T05:14:35;21.67;;;17.70;;
9924;SDS011;5001;51.674;7.868;2024-03-23T05:17:01;18.43;;;16.80;;
9924;SDS011;5001;51.674;7.868;2024-03-23T05:19:28;20.93;;;16.23;;
9924;SDS011;5001;51.674;7.868;2024-03-23T05:21:54;18.17;;;16.53;;
9924;SDS011;5001;51.674;7.868;2024-03-23T05:24:20;18.40;;;16.83;;
9924;SDS011;5001;51.674;7.868;2024-03-23T05:26:46;17.97;;;16.43;;
9924;SDS011;5001;51.674;7.868;2024-03-23T05:29:12;18.17;;;16.70;;
9924;SDS011;5001;51.674;7.868;2024-03-23T05:31:39;18.63;;;17.03;;
9924;SDS011;5001;51.674;7.868;2024-03-23T05:34:07;18.10;;;16.43;;
9924;SDS011;5001;51.674;7.868;2024-03-23T05:36:34;18.67;;;16.87;;
9924;SDS011;5001;51.674;7.868;2024-03-23T05:39:01;18.80;;;17.30;;
9924;SDS011;5001;51.674;7.868;2024-03-23T05:41:27;18.23;;;16.57;;
9924;SDS011;5001;51.674;7.868;2024-03-23T05:43:53;17.57;;;16.23;;
9924;SDS011;5001;51.674;7.868;2024-03-23T05:46:20;17.77;;;16.47;;
9924;SDS011;5001;51.674;7.868;2024-03-23T05:48:45;19.33;;;17.00;;
9924;SDS011;5001;51.674;7.868;2024-03-23T05:51:12;18.03;;;16.63;;
9924;SDS011;5001;51.674;7.868;2024-03-23T05:53:38;18.97;;;17.27;;
9924;SDS011;5001;51.674;7.868;2024-03-23T05:56:04;18.33;;;16.70;;
9924;SDS011;5001;51.674;7.868;2024-03-23T05:58:31;18.40;;;16.90;;
9924;SDS011;5001;51.674;7.868;2024-03-23T06:00:58;19.43;;;17.20;;
9924;SDS011;5001;51.674;7.868;2024-03-23T06:03:28;23.20;;;17.03;;
9924;SDS011;5001;51.674;7.868;2024-03-23T06:05:55;22.77;;;17.23;;
9924;SDS011;5001;51.674;7.868;2024-03-23T06:08:21;18.33;;;16.70;;
9924;SDS011;5001;51.674;7.868;2024-03-23T06:10:49;18.57;;;17.03;;
9924;SDS011;5001;51.674;7.868;2024-03-23T06:13:16;19.27;;;17.37;;
9924;SDS011;5001;51.674;7.868;2024-03-23T06:15:45;18.23;;;16.83;;
9924;SDS011;5001;51.674;7.868;2024-03-23T06:18:11;21.90;;;16.90;;
9924;SDS011;5001;51.674;7.868;2024-03-23T06:20:38;18.70;;;17.20;;
9924;SDS011;5001;51.674;7.868;2024-03-23T06:23:04;20.13;;;18.27;;
9924;SDS011;5001;51.674;7.868;2024-03-23T06:25:30;19.53;;;17.73;;
9924;SDS011;5001;51.674;7.868;2024-03-23T06:27:56;21.43;;;19.57;;
9924;SDS011;5001;51.674;7.868;2024-03-23T06:30:23;22.50;;;19.97;;
9924;SDS011;5001;51.674;7.868;2024-03-23T06:32:50;21.17;;;19.00;;
9924;SDS011;5001;51.674;7.868;2024-03-23T06:35:16;21.00;;;18.90;;
9924;SDS011;5001;51.674;7.868;2024-03-23T06:37:42;22.23;;;19.20;;
9924;SDS011;5001;51.674;7.868;2024-03-23T06:40:08;24.27;;;19.97;;
9924;SDS011;5001;51.674;7.868;2024-03-23T06:42:35;22.27;;;19.93;;
9924;SDS011;5001;51.674;7.868;2024-03-23T06:45:02;22.07;;;20.17;;
9924;SDS011;5001;51.674;7.868;2024-03-23T06:47:30;24.90;;;21.07;;
9924;SDS011;5001;51.674;7.868;2024-03-23T06:49:56;23.97;;;21.47;;
9924;SDS011;5001;51.674;7.868;2024-03-23T06:52:41;22.93;;;20.83;;
9924;SDS011;5001;51.674;7.868;2024-03-23T06:55:49;24.77;;;21.23;;
9924;SDS011;5001;51.674;7.868;2024-03-23T08:19:48;24.27;;;21.83;;
9924;SDS011;5001;51.674;7.868;2024-03-23T08:22:14;23.75;;;21.55;;
9924;SDS011;5001;51.674;7.868;2024-03-23T08:24:41;24.48;;;22.02;;
9924;SDS011;5001;51.674;7.868;2024-03-23T08:27:07;24.52;;;22.02;;
9924;SDS011;5001;51.674;7.868;2024-03-23T08:29:33;23.85;;;21.55;;
9924;SDS011;5001;51.674;7.868;2024-03-23T08:31:59;23.55;;;21.38;;
9924;SDS011;5001;51.674;7.868;2024-03-23T08:34:26;27.05;;;21.85;;
9924;SDS011;5001;51.674;7.868;2024-03-23T08:36:52;23.60;;;21.25;;
9924;SDS011;5001;51.674;7.868;2024-03-23T08:39:18;24.20;;;21.83;;
9924;SDS011;5001;51.674;7.868;2024-03-23T08:41:44;24.50;;;21.92;;
9924;SDS011;5001;51.674;7.868;2024-03-23T08:44:11;24.55;;;22.02;;
9924;SDS011;5001;51.674;7.868;2024-03-23T08:46:37;23.60;;;21.35;;
9924;SDS011;5001;51.674;7.868;2024-03-23T08:49:04;22.10;;;20.10;;
9924;SDS011;5001;51.674;7.868;2024-03-23T08:51:30;25.20;;;20.90;;
9924;SDS011;5001;51.674;7.868;2024-03-23T08:53:56;27.03;;;20.57;;
9924;SDS011;5001;51.674;7.868;2024-03-23T08:56:22;21.30;;;19.40;;
9924;SDS011;5001;51.674;7.868;2024-03-23T08:58:48;21.20;;;19.30;;
9924;SDS011;5001;51.674;7.868;2024-03-23T09:01:14;21.03;;;19.03;;
9924;SDS011;5001;51.674;7.868;2024-03-23T09:03:40;21.03;;;19.20;;
9924;SDS011;5001;51.674;7.868;2024-03-23T09:06:10;20.83;;;18.87;;
9924;SDS011;5001;51.674;7.868;2024-03-23T09:08:38;22.20;;;19.67;;
9924;SDS011;5001;51.674;7.868;2024-03-23T09:11:10;21.95;;;19.85;;
9924;SDS011;5001;51.674;7.868;2024-03-23T09:13:37;21.33;;;19.33;;
9924;SDS011;5001;51.674;7.868;2024-03-23T09:16:04;22.95;;;20.45;;
9924;SDS011;5001;51.674;7.868;2024-03-23T09:18:32;25.20;;;21.35;;
9924;SDS011;5001;51.674;7.868;2024-03-23T09:21:00;23.27;;;20.88;;
9924;SDS011;5001;51.674;7.868;2024-03-23T09:23:26;23.15;;;20.85;;
9924;SDS011;5001;51.674;7.868;2024-03-23T09:25:52;22.50;;;20.55;;
9924;SDS011;5001;51.674;7.868;2024-03-23T09:28:18;22.08;;;20.17;;
9924;SDS011;5001;51.674;7.868;2024-03-23T09:30:44;22.88;;;20.73;;
9924;SDS011;5001;51.674;7.868;2024-03-23T09:33:11;22.98;;;20.83;;
9924;SDS011;5001;51.674;7.868;2024-03-23T09:35:42;23.92;;;21.50;;
9924;SDS011;5001;51.674;7.868;2024-03-23T09:38:10;25.40;;;21.40;;
9924;SDS011;5001;51.674;7.868;2024-03-23T09:40:45;24.23;;;21.75;;
9924;SDS011;5001;51.674;7.868;2024-03-23T09:43:15;24.65;;;22.30;;
9924;SDS011;5001;51.674;7.868;2024-03-23T09:45:41;24.17;;;21.80;;
9924;SDS011;5001;51.674;7.868;2024-03-23T09:48:09;23.92;;;21.15;;
9924;SDS011;5001;51.674;7.868;2024-03-23T09:50:39;22.73;;;20.58;;
9924;SDS011;5001;51.674;7.868;2024-03-23T09:53:10;23.52;;;21.33;;
9924;SDS011;5001;51.674;7.868;2024-03-23T09:55:37;23.52;;;21.00;;
9924;SDS011;5001;51.674;7.868;2024-03-23T09:58:05;23.48;;;21.02;;
9924;SDS011;5001;51.674;7.868;2024-03-23T10:00:31;22.63;;;20.70;;
9924;SDS011;5001;51.674;7.868;2024-03-23T10:02:58;22.38;;;20.38;;
9924;SDS011;5001;51.674;7.868;2024-03-23T10:05:30;23.00;;;20.90;;
9924;SDS011;5001;51.674;7.868;2024-03-23T10:10:44;23.95;;;21.45;;
9924;SDS011;5001;51.674;7.868;2024-03-23T10:13:11;22.92;;;20.83;;
9924;SDS011;5001;51.674;7.868;2024-03-23T10:15:54;23.60;;;21.30;;
9924;SDS011;5001;51.674;7.868;2024-03-23T10:18:25;23.75;;;21.10;;
9924;SDS011;5001;51.674;7.868;2024-03-23T10:23:34;24.67;;;22.17;;
9924;SDS011;5001;51.674;7.868;2024-03-23T10:26:13;24.73;;;20.97;;
9924;SDS011;5001;51.674;7.868;2024-03-23T10:28:54;22.97;;;20.80;;
9924;SDS011;5001;51.674;7.868;2024-03-23T10:31:29;22.27;;;20.20;;
9924;SDS011;5001;51.674;7.868;2024-03-23T10:33:56;22.13;;;20.00;;
9924;SDS011;5001;51.674;7.868;2024-03-23T10:36:23;22.30;;;20.10;;
9924;SDS011;5001;51.674;7.868;2024-03-23T10:38:51;22.20;;;20.13;;
9924;SDS011;5001;51.674;7.868;2024-03-23T10:41:18;22.40;;;20.50;;
9924;SDS011;5001;51.674;7.868;2024-03-23T10:43:45;23.02;;;21.02;;
9924;SDS011;5001;51.674;7.868;2024-03-23T10:46:12;23.33;;;20.90;;
9924;SDS011;5001;51.674;7.868;2024-03-23T10:48:38;22.77;;;20.52;;
9924;SDS011;5001;51.674;7.868;2024-03-23T10:51:08;21.75;;;20.00;;
9924;SDS011;5001;51.674;7.868;2024-03-23T10:53:35;22.38;;;20.58;;
9924;SDS011;5001;51.674;7.868;2024-03-23T10:56:02;22.95;;;21.05;;
9924;SDS011;5001;51.674;7.868;2024-03-23T10:58:35;23.00;;;20.90;;
9924;SDS011;5001;51.674;7.868;2024-03-23T11:01:03;23.17;;;20.80;;
9924;SDS011;5001;51.674;7.868;2024-03-23T11:05:55;23.15;;;20.92;;
9924;SDS011;5001;51.674;7.868;2024-03-23T11:08:31;22.25;;;20.25;;
9924;SDS011;5001;51.674;7.868;2024-03-23T11:13:44;21.80;;;19.90;;
9924;SDS011;5001;51.674;7.868;2024-03-23T11:16:16;21.17;;;19.23;;
9924;SDS011;5001;51.674;7.868;2024-03-23T11:18:47;22.33;;;19.95;;
9924;SDS011;5001;51.674;7.868;2024-03-23T11:21:51;21.90;;;20.00;;
9924;SDS011;5001;51.674;7.868;2024-03-23T11:24:21;22.60;;;20.55;;
9924;SDS011;5001;51.674;7.868;2024-03-23T11:26:48;22.27;;;20.08;;
9924;SDS011;5001;51.674;7.868;2024-03-23T11:29:15;22.30;;;20.00;;
9924;SDS011;5001;51.674;7.868;2024-03-23T11:31:50;22.15;;;20.00;;
9924;SDS011;5001;51.674;7.868;2024-03-23T11:34:17;22.55;;;20.15;;
9924;SDS011;5001;51.674;7.868;2024-03-23T11:36:44;22.63;;;20.63;;
9924;SDS011;5001;51.674;7.868;2024-03-23T11:39:15;22.37;;;20.20;;
9924;SDS011;5001;51.674;7.868;2024-03-23T11:41:49;22.77;;;20.87;;
9924;SDS011;5001;51.674;7.868;2024-03-23T11:46:42;20.90;;;19.17;;
9924;SDS011;5001;51.674;7.868;2024-03-23T11:51:49;22.03;;;20.10;;
9924;SDS011;5001;51.674;7.868;2024-03-23T11:54:19;21.47;;;19.77;;
9924;SDS011;5001;51.674;7.868;2024-03-23T11:56:59;21.57;;;19.87;;
9924;SDS011;5001;51.674;7.868;2024-03-23T11:59:32;21.43;;;19.43;;
9924;SDS011;5001;51.674;7.868;2024-03-23T12:01:59;20.77;;;19.17;;
9924;SDS011;5001;51.674;7.868;2024-03-23T12:04:28;20.23;;;18.60;;
9924;SDS011;5001;51.674;7.868;2024-03-23T12:09:36;20.60;;;19.00;;
9924;SDS011;5001;51.674;7.868;2024-03-23T12:12:07;20.20;;;18.63;;
9924;SDS011;5001;51.674;7.868;2024-03-23T12:15:01;20.20;;;18.50;;
9924;SDS011;5001;51.674;7.868;2024-03-23T12:17:28;19.80;;;18.30;;
9924;SDS011;5001;51.674;7.868;2024-03-23T12:19:54;20.53;;;18.70;;
9924;SDS011;5001;51.674;7.868;2024-03-23T12:22:20;20.57;;;18.83;;
9924;SDS011;5001;51.674;7.868;2024-03-23T12:24:47;20.30;;;18.80;;
9924;SDS011;5001;51.674;7.868;2024-03-23T12:27:13;20.52;;;18.92;;
9924;SDS011;5001;51.674;7.868;2024-03-23T12:29:40;20.90;;;19.30;;
9924;SDS011;5001;51.674;7.868;2024-03-23T12:32:11;20.98;;;19.38;;
9924;SDS011;5001;51.674;7.868;2024-03-23T12:34:38;21.33;;;19.63;;
9924;SDS011;5001;51.674;7.868;2024-03-23T12:37:04;21.48;;;19.52;;
9924;SDS011;5001;51.674;7.868;2024-03-23T12:39:31;21.38;;;19.48;;
9924;SDS011;5001;51.674;7.868;2024-03-23T12:41:57;21.03;;;19.23;;
9924;SDS011;5001;51.674;7.868;2024-03-23T12:44:23;21.03;;;19.37;;
9924;SDS011;5001;51.674;7.868;2024-03-23T12:46:49;21.40;;;19.40;;
9924;SDS011;5001;51.674;7.868;2024-03-23T12:49:15;21.77;;;19.80;;
9924;SDS011;5001;51.674;7.868;2024-03-23T12:51:47;20.93;;;19.13;;
9924;SDS011;5001;51.674;7.868;2024-03-23T12:54:19;21.63;;;19.50;;
9924;SDS011;5001;51.674;7.868;2024-03-23T12:56:45;21.93;;;20.00;;
9924;SDS011;5001;51.674;7.868;2024-03-23T12:59:11;21.30;;;19.43;;
9924;SDS011;5001;51.674;7.868;2024-03-23T13:01:38;20.67;;;18.77;;
9924;SDS011;5001;51.674;7.868;2024-03-23T13:04:04;19.97;;;18.27;;
9924;SDS011;5001;51.674;7.868;2024-03-23T13:06:30;21.00;;;19.00;;
9924;SDS011;5001;51.674;7.868;2024-03-23T13:09:00;20.80;;;18.90;;
9924;SDS011;5001;51.674;7.868;2024-03-23T13:11:27;20.33;;;18.63;;
9924;SDS011;5001;51.674;7.868;2024-03-23T13:13:54;21.30;;;19.60;;
9924;SDS011;5001;51.674;7.868;2024-03-23T13:16:20;21.07;;;19.27;;
9924;SDS011;5001;51.674;7.868;2024-03-23T13:18:46;21.50;;;19.40;;
9924;SDS011;5001;51.674;7.868;2024-03-23T13:21:12;21.53;;;19.77;;
9924;SDS011;5001;51.674;7.868;2024-03-23T13:23:38;20.90;;;19.10;;
9924;SDS011;5001;51.674;7.868;2024-03-23T13:26:07;19.90;;;18.40;;
9924;SDS011;5001;51.674;7.868;2024-03-23T13:28:33;19.80;;;18.23;;
9924;SDS011;5001;51.674;7.868;2024-03-23T13:31:01;20.93;;;19.07;;
9924;SDS011;5001;51.674;7.868;2024-03-23T13:33:30;20.27;;;18.47;;
9924;SDS011;5001;51.674;7.868;2024-03-23T13:35:59;20.57;;;18.77;;
9924;SDS011;5001;51.674;7.868;2024-03-23T13:38:25;20.27;;;18.67;;
9924;SDS011;5001;51.674;7.868;2024-03-23T13:40:59;20.10;;;18.60;;
9924;SDS011;5001;51.674;7.868;2024-03-23T13:43:26;19.70;;;18.00;;
9924;SDS011;5001;51.674;7.868;2024-03-23T13:45:59;20.40;;;18.60;;
9924;SDS011;5001;51.674;7.868;2024-03-23T13:48:26;19.87;;;18.37;;
9924;SDS011;5001;51.674;7.868;2024-03-23T13:51:01;20.53;;;18.83;;
9924;SDS011;5001;51.674;7.868;2024-03-23T13:53:28;19.50;;;18.00;;
9924;SDS011;5001;51.674;7.868;2024-03-23T13:55:55;20.00;;;18.40;;
9924;SDS011;5001;51.674;7.868;2024-03-23T13:58:21;20.13;;;18.37;;
9924;SDS011;5001;51.674;7.868;2024-03-23T14:00:49;19.97;;;18.43;;
9924;SDS011;5001;51.674;7.868;2024-03-23T14:03:15;20.07;;;18.53;;
9924;SDS011;5001;51.674;7.868;2024-03-23T14:05:41;20.23;;;18.60;;
9924;SDS011;5001;51.674;7.868;2024-03-23T14:08:07;19.60;;;18.10;;
9924;SDS011;5001;51.674;7.868;2024-03-23T14:10:34;20.00;;;18.20;;
9924;SDS011;5001;51.674;7.868;2024-03-23T14:13:03;20.40;;;18.70;;
9924;SDS011;5001;51.674;7.868;2024-03-23T14:15:29;19.63;;;18.13;;
9924;SDS011;5001;51.674;7.868;2024-03-23T14:17:56;19.40;;;18.00;;
9924;SDS011;5001;51.674;7.868;2024-03-23T14:20:22;19.63;;;18.00;;
9924;SDS011;5001;51.674;7.868;2024-03-23T14:22:49;19.43;;;17.87;;
9924;SDS011;5001;51.674;7.868;2024-03-23T14:25:15;19.57;;;18.07;;
9924;SDS011;5001;51.674;7.868;2024-03-23T14:27:43;19.60;;;18.13;;
9924;SDS011;5001;51.674;7.868;2024-03-23T14:30:10;19.40;;;17.80;;
9924;SDS011;5001;51.674;7.868;2024-03-23T14:32:37;19.30;;;18.00;;
9924;SDS011;5001;51.674;7.868;2024-03-23T14:35:04;19.53;;;17.83;;
9924;SDS011;5001;51.674;7.868;2024-03-23T14:37:30;19.07;;;17.60;;
9924;SDS011;5001;51.674;7.868;2024-03-23T14:39:56;19.90;;;18.23;;
9924;SDS011;5001;51.674;7.868;2024-03-23T14:42:23;19.03;;;17.70;;
9924;SDS011;5001;51.674;7.868;2024-03-23T14:44:52;18.77;;;17.43;;
9924;SDS011;5001;51.674;7.868;2024-03-23T14:47:18;19.80;;;18.20;;
9924;SDS011;5001;51.674;7.868;2024-03-23T14:49:45;19.00;;;17.60;;
9924;SDS011;5001;51.674;7.868;2024-03-23T14:52:16;19.23;;;17.67;;
9924;SDS011;5001;51.674;7.868;2024-03-23T14:54:42;19.30;;;17.90;;
9924;SDS011;5001;51.674;7.868;2024-03-23T14:57:09;19.83;;;18.03;;
9924;SDS011;5001;51.674;7.868;2024-03-23T14:59:35;18.90;;;17.60;;
9924;SDS011;5001;51.674;7.868;2024-03-23T15:02:04;19.50;;;18.00;;
9924;SDS011;5001;51.674;7.868;2024-03-23T15:04:30;19.60;;;18.13;;
9924;SDS011;5001;51.674;7.868;2024-03-23T15:06:56;19.83;;;18.23;;
9924;SDS011;5001;51.674;7.868;2024-03-23T15:09:22;19.57;;;18.17;;
9924;SDS011;5001;51.674;7.868;2024-03-23T15:11:48;19.47;;;17.97;;
9924;SDS011;5001;51.674;7.868;2024-03-23T15:14:14;20.00;;;18.40;;
9924;SDS011;5001;51.674;7.868;2024-03-23T15:16:40;19.67;;;17.93;;
9924;SDS011;5001;51.674;7.868;2024-03-23T15:19:08;19.80;;;18.10;;
9924;SDS011;5001;51.674;7.868;2024-03-23T15:21:34;19.80;;;18.20;;
9924;SDS011;5001;51.674;7.868;2024-03-23T15:24:00;20.30;;;18.60;;
9924;SDS011;5001;51.674;7.868;2024-03-23T15:26:26;19.60;;;18.00;;
9924;SDS011;5001;51.674;7.868;2024-03-23T15:28:52;19.73;;;18.13;;
9924;SDS011;5001;51.674;7.868;2024-03-23T15:31:39;19.53;;;18.13;;
9924;SDS011;5001;51.674;7.868;2024-03-23T15:34:05;20.67;;;18.90;;
9924;SDS011;5001;51.674;7.868;2024-03-23T15:36:35;20.17;;;18.37;;
9924;SDS011;5001;51.674;7.868;2024-03-23T15:39:04;20.43;;;18.57;;
9924;SDS011;5001;51.674;7.868;2024-03-23T15:41:30;20.23;;;18.57;;
9924;SDS011;5001;51.674;7.868;2024-03-23T15:43:57;22.60;;;20.47;;
9924;SDS011;5001;51.674;7.868;2024-03-23T15:46:23;20.83;;;19.13;;
9924;SDS011;5001;51.674;7.868;2024-03-23T15:48:50;21.00;;;19.30;;
9924;SDS011;5001;51.674;7.868;2024-03-23T15:51:16;21.50;;;19.67;;
9924;SDS011;5001;51.674;7.868;2024-03-23T15:53:43;30.30;;;24.33;;
9924;SDS011;5001;51.674;7.868;2024-03-23T15:56:09;40.63;;;29.83;;
9924;SDS011;5001;51.674;7.868;2024-03-23T15:58:35;21.80;;;19.80;;
9924;SDS011;5001;51.674;7.868;2024-03-23T16:01:02;22.00;;;19.80;;
9924;SDS011;5001;51.674;7.868;2024-03-23T16:03:30;20.60;;;18.80;;
9924;SDS011;5001;51.674;7.868;2024-03-23T16:05:58;20.63;;;19.13;;
9924;SDS011;5001;51.674;7.868;2024-03-23T16:08:26;20.50;;;18.93;;
9924;SDS011;5001;51.674;7.868;2024-03-23T16:10:52;21.10;;;19.40;;
9924;SDS011;5001;51.674;7.868;2024-03-23T16:13:19;20.53;;;18.83;;
9924;SDS011;5001;51.674;7.868;2024-03-23T16:15:46;20.80;;;19.20;;
9924;SDS011;5001;51.674;7.868;2024-03-23T16:18:31;21.20;;;19.60;;
9924;SDS011;5001;51.674;7.868;2024-03-23T16:20:59;20.30;;;18.77;;
9924;SDS011;5001;51.674;7.868;2024-03-23T16:23:26;19.30;;;17.90;;
9924;SDS011;5001;51.674;7.868;2024-03-23T16:25:53;19.97;;;18.20;;
9924;SDS011;5001;51.674;7.868;2024-03-23T16:28:28;20.63;;;19.10;;
9924;SDS011;5001;51.674;7.868;2024-03-23T16:33:24;21.70;;;19.73;;
9924;SDS011;5001;51.674;7.868;2024-03-23T16:36:00;21.70;;;19.77;;
9924;SDS011;5001;51.674;7.868;2024-03-23T16:38:34;20.67;;;19.07;;
9924;SDS011;5001;51.674;7.868;2024-03-23T16:41:02;20.27;;;18.67;;
9924;SDS011;5001;51.674;7.868;2024-03-23T16:43:33;20.17;;;18.57;;
9924;SDS011;5001;51.674;7.868;2024-03-23T16:46:04;20.13;;;18.50;;
9924;SDS011;5001;51.674;7.868;2024-03-23T16:48:30;20.30;;;18.70;;
9924;SDS011;5001;51.674;7.868;2024-03-23T16:50:57;19.07;;;17.77;;
9924;SDS011;5001;51.674;7.868;2024-03-23T16:53:25;19.90;;;18.20;;
9924;SDS011;5001;51.674;7.868;2024-03-23T16:56:01;19.80;;;18.30;;
9924;SDS011;5001;51.674;7.868;2024-03-23T16:58:31;19.87;;;18.23;;
9924;SDS011;5001;51.674;7.868;2024-03-23T17:01:09;20.10;;;18.60;;
9924;SDS011;5001;51.674;7.868;2024-03-23T17:03:46;19.90;;;18.47;;
9924;SDS011;5001;51.674;7.868;2024-03-23T17:06:16;20.03;;;18.53;;
9924;SDS011;5001;51.674;7.868;2024-03-23T17:08:48;21.30;;;19.27;;
9924;SDS011;5001;51.674;7.868;2024-03-23T17:11:14;19.50;;;18.10;;
9924;SDS011;5001;51.674;7.868;2024-03-23T17:13:42;20.80;;;19.07;;
9924;SDS011;5001;51.674;7.868;2024-03-23T17:16:08;21.00;;;19.00;;
9924;SDS011;5001;51.674;7.868;2024-03-23T17:18:36;20.03;;;18.53;;
9924;SDS011;5001;51.674;7.868;2024-03-23T17:21:02;20.63;;;18.80;;
9924;SDS011;5001;51.674;7.868;2024-03-23T17:23:29;20.33;;;18.80;;
9924;SDS011;5001;51.674;7.868;2024-03-23T17:25:56;20.07;;;18.57;;
9924;SDS011;5001;51.674;7.868;2024-03-23T17:28:22;20.63;;;18.87;;
9924;SDS011;5001;51.674;7.868;2024-03-23T17:30:48;20.73;;;19.03;;